Time;durP1;ratioP1;P1;durP2;ratioP2;P2;SDS_P1;SDS_P2;PMS_P1;PMS_P2;Temp;Humidity;BMP_temperature;BMP_pressure;BME280_temperature;BME280_humidity;BME280_pressure;Samples;Min_cycle;Max_cycle;Signal;HPM_P1;HPM_P2
2023/01/20 00:00:22;;;;;;;71.30;34.58;;;;;;;-0.48;100.00;100879.72;5249664;28;20060;-67
2023/01/20 00:02:53;;;;;;;73.30;35.15;;;;;;;-0.50;100.00;100888.50;5253833;28;20041;-66
2023/01/20 00:05:25;;;;;;;73.00;35.65;;;;;;;-0.52;100.00;100898.19;5251921;28;20169;-67
2023/01/20 00:07:56;;;;;;;77.15;37.42;;;;;;;-0.53;100.00;100901.72;5261669;28;20037;-67
2023/01/20 00:10:27;;;;;;;76.90;36.58;;;;;;;-0.53;100.00;100904.34;5254928;28;20024;-67
2023/01/20 00:12:59;;;;;;;83.50;37.40;;;;;;;-0.56;100.00;100905.28;5251331;28;20036;-67
2023/01/20 00:15:30;;;;;;;78.35;36.88;;;;;;;-0.58;100.00;100907.06;5252845;28;20021;-67
2023/01/20 00:18:01;;;;;;;80.47;37.42;;;;;;;-0.45;100.00;100904.97;5260570;28;20085;-67
2023/01/20 00:20:32;;;;;;;90.43;39.95;;;;;;;-0.56;100.00;100904.41;5251962;28;20049;-67
2023/01/20 00:23:04;;;;;;;77.28;36.15;;;;;;;-0.59;100.00;100902.75;5255258;28;20091;-67
2023/01/20 00:25:36;;;;;;;82.25;35.10;;;;;;;-0.62;100.00;100910.69;5252622;28;20035;-67
2023/01/20 00:28:07;;;;;;;78.28;35.65;;;;;;;-0.56;100.00;100915.75;5240952;28;20107;-67
2023/01/20 00:30:38;;;;;;;82.25;34.35;;;;;;;-0.60;100.00;100907.13;5238134;28;20021;-66
2023/01/20 00:33:10;;;;;;;82.47;34.45;;;;;;;-0.59;100.00;100923.72;5243083;28;20067;-66
2023/01/20 00:35:41;;;;;;;75.72;33.85;;;;;;;-0.60;100.00;100916.75;5239165;28;20717;-67
2023/01/20 00:38:14;;;;;;;79.82;34.13;;;;;;;-0.62;100.00;100916.78;5242781;28;20033;-67
2023/01/20 00:40:52;;;;;;;84.25;34.72;;;;;;;-0.58;100.00;100916.72;5242987;28;20109;-67
2023/01/20 00:43:23;;;;;;;78.65;33.20;;;;;;;-0.57;100.00;100921.91;5241512;28;20021;-67
2023/01/20 00:45:55;;;;;;;77.53;32.70;;;;;;;-0.50;100.00;100925.19;5240727;28;20380;-67
2023/01/20 00:48:26;;;;;;;96.20;36.75;;;;;;;-0.48;100.00;100939.13;5241991;28;20029;-67
2023/01/20 00:50:57;;;;;;;83.88;35.15;;;;;;;-0.51;100.00;100933.97;5244732;28;20032;-67
2023/01/20 00:53:29;;;;;;;83.13;35.63;;;;;;;-0.50;100.00;100935.69;5239405;28;20082;-67
2023/01/20 00:56:00;;;;;;;104.30;37.60;;;;;;;-0.46;100.00;100935.56;5243355;28;20531;-67
2023/01/20 00:58:32;;;;;;;78.93;34.25;;;;;;;-0.28;100.00;100934.16;5247457;28;20183;-67
2023/01/20 01:01:03;;;;;;;82.40;35.50;;;;;;;-0.34;100.00;100939.59;5256872;28;20471;-67
2023/01/20 01:03:34;;;;;;;75.03;33.90;;;;;;;-0.22;100.00;100940.97;5258803;28;20035;-67
2023/01/20 01:06:11;;;;;;;87.47;35.80;;;;;;;-0.36;100.00;100933.53;5251785;28;20028;-66
2023/01/20 01:08:43;;;;;;;85.78;35.45;;;;;;;-0.40;100.00;100938.00;5257686;28;20433;-67
2023/01/20 01:11:15;;;;;;;80.32;34.55;;;;;;;-0.43;100.00;100948.56;5264184;28;20039;-67
2023/01/20 01:13:46;;;;;;;78.28;33.30;;;;;;;-0.47;100.00;100951.31;5259864;28;20720;-67
2023/01/20 01:16:17;;;;;;;77.18;31.25;;;;;;;-0.53;100.00;100954.13;5258400;28;20027;-67
2023/01/20 01:18:52;;;;;;;74.18;31.10;;;;;;;-0.56;100.00;100960.31;5265144;28;20475;-67
2023/01/20 01:21:23;;;;;;;71.50;31.40;;;;;;;-0.55;100.00;100961.19;5263394;28;20473;-67
2023/01/20 01:23:55;;;;;;;86.88;32.45;;;;;;;-0.56;100.00;100959.44;5255366;28;20091;-67
2023/01/20 01:26:26;;;;;;;79.15;32.15;;;;;;;-0.58;100.00;100969.97;5248528;28;20487;-67
2023/01/20 01:28:58;;;;;;;78.20;32.30;;;;;;;-0.60;100.00;100966.53;5245325;28;20032;-67
2023/01/20 01:31:29;;;;;;;79.25;32.72;;;;;;;-0.47;100.00;100967.91;5243736;28;20029;-67
2023/01/20 01:34:00;;;;;;;81.82;32.33;;;;;;;-0.52;100.00;100972.41;5246972;28;20029;-67
2023/01/20 01:36:32;;;;;;;75.03;30.48;;;;;;;-0.43;100.00;100968.69;5242785;28;20029;-67
2023/01/20 01:39:03;;;;;;;72.70;30.38;;;;;;;-0.48;100.00;100965.31;5246159;28;20463;-67
2023/01/20 01:41:34;;;;;;;82.97;33.53;;;;;;;-0.50;100.00;100973.25;5245082;28;20413;-67
2023/01/20 01:44:09;;;;;;;84.55;31.65;;;;;;;-0.52;100.00;100972.41;5244710;28;20025;-67
2023/01/20 01:46:42;;;;;;;76.07;30.83;;;;;;;-0.42;100.00;100976.50;5242050;28;20078;-67
2023/01/20 01:49:28;;;;;;;77.93;31.30;;;;;;;-0.44;100.00;100977.44;5244005;28;20120;-67
2023/01/20 01:52:04;;;;;;;88.80;31.13;;;;;;;-0.45;100.00;100980.97;5244369;28;20803;-67
2023/01/20 01:54:41;;;;;;;86.15;31.35;;;;;;;-0.46;100.00;100974.00;5245138;28;20016;-67
2023/01/20 01:57:12;;;;;;;82.72;31.83;;;;;;;-0.47;100.00;100978.38;5251352;28;20056;-67
2023/01/20 01:59:44;;;;;;;85.72;31.00;;;;;;;-0.43;100.00;100976.53;5259275;28;20060;-67
2023/01/20 02:02:15;;;;;;;87.78;31.13;;;;;;;-0.43;100.00;100973.91;5254347;28;20021;-67
2023/01/20 02:04:47;;;;;;;90.28;31.30;;;;;;;-0.44;100.00;100974.81;5256223;28;20399;-67
2023/01/20 02:07:20;;;;;;;89.47;31.90;;;;;;;-0.41;100.00;100977.34;5246989;28;20024;-67
2023/01/20 02:09:51;;;;;;;89.15;33.03;;;;;;;-0.40;100.00;100979.94;5240829;28;20056;-67
2023/01/20 02:12:23;;;;;;;84.00;31.67;;;;;;;-0.42;100.00;100983.53;5240849;28;20473;-67
2023/01/20 02:14:56;;;;;;;93.88;32.15;;;;;;;-0.41;100.00;100982.59;5244526;28;20039;-67
2023/01/20 02:17:38;;;;;;;85.45;33.60;;;;;;;-0.40;100.00;100989.56;5247439;28;20032;-67
2023/01/20 02:20:43;;;;;;;87.35;32.75;;;;;;;-0.41;100.00;100977.34;5252717;28;20052;-66
2023/01/20 02:23:26;;;;;;;85.30;32.35;;;;;;;-0.42;100.00;100976.50;5250418;28;20040;-67
2023/01/20 02:26:35;;;;;;;86.80;31.70;;;;;;;-0.43;100.00;100982.63;5249177;28;20442;-67
2023/01/20 02:29:44;;;;;;;79.72;30.88;;;;;;;-0.45;100.00;100984.44;5222294;28;20041;-66
2023/01/20 02:32:34;;;;;;;86.88;30.88;;;;;;;-0.49;100.00;100988.06;5236821;28;20103;-67
2023/01/20 02:35:13;;;;;;;78.00;29.40;;;;;;;-0.51;100.00;100994.25;5238673;28;20040;-67
2023/01/20 02:37:58;;;;;;;78.57;29.20;;;;;;;-0.50;100.00;100998.56;5240860;28;20520;-67
2023/01/20 02:40:45;;;;;;;79.45;30.05;;;;;;;-0.48;100.00;101005.53;5246754;28;20063;-67
2023/01/20 02:43:30;;;;;;;85.15;31.63;;;;;;;-0.51;100.00;100999.50;5235957;28;20493;-67
2023/01/20 02:46:12;;;;;;;82.22;30.92;;;;;;;-0.51;100.00;101008.22;5242405;28;20064;-67
2023/01/20 02:48:59;;;;;;;85.50;29.20;;;;;;;-0.55;100.00;100996.09;5245781;28;20044;-67
2023/01/20 02:51:38;;;;;;;81.65;30.92;;;;;;;-0.51;100.00;100991.63;5241399;28;20487;-67
2023/01/20 02:54:15;;;;;;;84.75;30.95;;;;;;;-0.52;100.00;100996.00;5244609;28;20043;-66
2023/01/20 02:56:48;;;;;;;83.70;30.73;;;;;;;-0.50;100.00;101006.44;5248909;28;20025;-67
2023/01/20 02:59:25;;;;;;;80.90;30.10;;;;;;;-0.52;100.00;100996.00;5262952;28;20090;-67
2023/01/20 03:02:03;;;;;;;80.93;29.70;;;;;;;-0.43;100.00;100997.50;5257773;28;20060;-67
2023/01/20 03:04:50;;;;;;;76.55;30.65;;;;;;;-0.47;100.00;100995.88;5259353;28;20123;-67
2023/01/20 03:07:25;;;;;;;76.93;30.02;;;;;;;-0.44;100.00;100999.28;5256521;28;20037;-67
2023/01/20 03:10:01;;;;;;;80.20;28.75;;;;;;;-0.44;100.00;100995.78;5273116;28;20123;-66
2023/01/20 03:12:39;;;;;;;82.28;30.58;;;;;;;-0.44;100.00;100994.03;5262775;28;20536;-67
2023/01/20 03:15:11;;;;;;;88.97;31.77;;;;;;;-0.45;100.00;100999.31;5258401;28;20047;-66
2023/01/20 03:17:42;;;;;;;74.13;28.17;;;;;;;-0.44;100.00;101004.53;5253473;28;20111;-67
2023/01/20 03:20:14;;;;;;;84.13;30.20;;;;;;;-0.44;100.00;101007.16;5254439;28;20078;-66
2023/01/20 03:22:45;;;;;;;83.50;30.08;;;;;;;-0.43;100.00;101014.09;5257712;28;20164;-66
2023/01/20 03:25:19;;;;;;;76.78;29.90;;;;;;;-0.50;100.00;101009.94;5263214;28;20025;-66
2023/01/20 03:27:50;;;;;;;86.03;30.88;;;;;;;-0.50;100.00;101002.09;5247249;28;20845;-66
2023/01/20 03:30:23;;;;;;;80.05;30.23;;;;;;;-0.49;100.00;101016.88;5243129;28;20113;-66
2023/01/20 03:32:55;;;;;;;87.43;30.75;;;;;;;-0.47;100.00;101012.47;5243682;28;20035;-66
2023/01/20 03:35:26;;;;;;;77.78;28.23;;;;;;;-0.38;100.00;101028.81;5244170;28;20573;-66
2023/01/20 03:37:58;;;;;;;83.78;30.25;;;;;;;-0.52;100.00;101016.97;5241015;28;20049;-66
2023/01/20 03:40:36;;;;;;;79.13;29.92;;;;;;;-0.41;100.00;101020.16;5241557;28;20383;-66
2023/01/20 03:43:18;;;;;;;75.47;28.65;;;;;;;-0.44;100.00;101027.22;5240348;28;20115;-66
2023/01/20 03:46:09;;;;;;;83.57;30.35;;;;;;;-0.42;100.00;101026.31;5239562;28;20033;-66
2023/01/20 03:48:50;;;;;;;86.07;30.65;;;;;;;-0.46;100.00;101010.69;5242668;28;20029;-66
2023/01/20 03:51:32;;;;;;;76.32;28.90;;;;;;;-0.33;100.00;101026.94;5236574;28;20039;-66
2023/01/20 03:54:10;;;;;;;81.78;31.27;;;;;;;-0.39;100.00;101030.59;5239709;28;20033;-64
2023/01/20 03:56:50;;;;;;;84.93;31.25;;;;;;;-0.41;100.00;101024.53;5242414;28;20040;-64
2023/01/20 03:59:22;;;;;;;87.75;31.67;;;;;;;-0.34;100.00;101020.84;5239715;28;20039;-64
2023/01/20 04:01:53;;;;;;;95.95;33.80;;;;;;;-0.33;100.00;101022.56;5241027;28;20021;-64
2023/01/20 04:04:25;;;;;;;104.50;36.10;;;;;;;-0.35;100.00;101020.88;5243177;28;20446;-64
2023/01/20 04:06:56;;;;;;;93.93;35.00;;;;;;;-0.30;100.00;101038.19;5241456;28;20029;-64
2023/01/20 04:09:33;;;;;;;101.88;35.50;;;;;;;-0.34;100.00;101028.72;5243306;28;20025;-64
2023/01/20 04:12:05;;;;;;;97.22;35.13;;;;;;;-0.34;100.00;101028.72;5240777;28;20029;-64
2023/01/20 04:14:36;;;;;;;92.20;34.42;;;;;;;-0.32;100.00;101026.06;5237738;28;20374;-64
2023/01/20 04:17:08;;;;;;;94.65;34.17;;;;;;;-0.35;100.00;101026.97;5235878;28;20028;-64
2023/01/20 04:19:39;;;;;;;86.63;33.88;;;;;;;-0.35;100.00;101034.00;5237671;28;20739;-64
2023/01/20 04:22:30;;;;;;;84.28;32.30;;;;;;;-0.38;100.00;101037.56;5233710;28;20068;-64
2023/01/20 04:25:19;;;;;;;81.63;32.42;;;;;;;-0.45;100.00;101033.41;5234720;28;20514;-64
2023/01/20 04:27:50;;;;;;;81.80;31.20;;;;;;;-0.46;100.00;101035.16;5238980;28;20036;-64
2023/01/20 04:30:22;;;;;;;79.72;31.10;;;;;;;-0.51;100.00;101029.19;5238897;28;20059;-64
2023/01/20 04:32:53;;;;;;;80.60;31.08;;;;;;;-0.48;100.00;101029.09;5238321;28;20111;-64
2023/01/20 04:35:24;;;;;;;96.70;34.47;;;;;;;-0.46;100.00;101044.75;5238726;28;20711;-64
2023/01/20 04:37:56;;;;;;;82.07;32.65;;;;;;;-0.48;100.00;101029.09;5238807;28;20033;-64
2023/01/20 04:40:27;;;;;;;82.18;31.83;;;;;;;-0.52;100.00;101037.94;5237556;28;20021;-64
2023/01/20 04:42:58;;;;;;;77.40;31.23;;;;;;;-0.47;100.00;101032.59;5242871;28;20063;-65
2023/01/20 04:45:30;;;;;;;81.57;33.60;;;;;;;-0.49;100.00;101044.88;5241007;28;20551;-64
2023/01/20 04:48:06;;;;;;;80.50;31.50;;;;;;;-0.41;100.00;101040.25;5241059;28;20143;-64
2023/01/20 04:50:40;;;;;;;82.63;31.63;;;;;;;-0.47;100.00;101048.31;5240381;28;20667;-64
2023/01/20 04:53:15;;;;;;;80.30;32.55;;;;;;;-0.36;100.00;101056.75;5240755;28;20060;-64
2023/01/20 04:55:47;;;;;;;81.88;31.90;;;;;;;-0.43;100.00;101050.78;5241689;28;20056;-64
2023/01/20 04:58:18;;;;;;;90.10;32.40;;;;;;;-0.38;100.00;101052.41;5259039;28;20125;-64
2023/01/20 05:00:49;;;;;;;84.70;31.60;;;;;;;-0.45;100.00;101051.75;5247804;28;20025;-64
2023/01/20 05:03:21;;;;;;;81.00;31.45;;;;;;;-0.36;100.00;101048.03;5249736;28;20082;-64
2023/01/20 05:05:53;;;;;;;80.82;31.65;;;;;;;-0.37;100.00;101048.91;5253659;28;20024;-64
2023/01/20 05:08:24;;;;;;;77.43;31.15;;;;;;;-0.41;100.00;101056.84;5252977;28;20021;-64
2023/01/20 05:10:55;;;;;;;85.30;33.40;;;;;;;-0.41;100.00;101048.97;5247770;28;20076;-64
2023/01/20 05:13:27;;;;;;;87.00;32.45;;;;;;;-0.44;100.00;101051.72;5252802;28;20036;-64
2023/01/20 05:15:58;;;;;;;82.97;33.35;;;;;;;-0.36;100.00;101063.75;5249234;28;20086;-65
2023/01/20 05:18:29;;;;;;;85.15;32.13;;;;;;;-0.40;100.00;101053.34;5248892;28;20040;-64
2023/01/20 05:21:03;;;;;;;87.47;32.38;;;;;;;-0.37;100.00;101059.41;5250867;28;20047;-64
2023/01/20 05:23:34;;;;;;;81.83;31.43;;;;;;;-0.45;100.00;101057.84;5250046;28;20059;-64
2023/01/20 05:26:05;;;;;;;82.18;32.30;;;;;;;-0.36;100.00;101066.38;5247001;28;20025;-64
2023/01/20 05:28:37;;;;;;;87.32;33.53;;;;;;;-0.40;100.00;101073.47;5244191;28;20041;-64
2023/01/20 05:31:08;;;;;;;78.20;32.60;;;;;;;-0.39;100.00;101072.53;5236562;28;20646;-64
2023/01/20 05:33:39;;;;;;;77.22;30.60;;;;;;;-0.37;100.00;101069.88;5236317;28;20036;-64
2023/01/20 05:36:11;;;;;;;85.07;32.45;;;;;;;-0.40;100.00;101070.84;5237109;28;20035;-65
2023/01/20 05:38:42;;;;;;;77.60;30.25;;;;;;;-0.44;100.00;101067.44;5236006;28;20584;-64
2023/01/20 05:41:14;;;;;;;85.43;32.33;;;;;;;-0.44;100.00;101059.56;5239755;28;20036;-64
2023/01/20 05:43:45;;;;;;;78.75;30.95;;;;;;;-0.46;100.00;101066.63;5236501;28;20024;-64
2023/01/20 05:46:16;;;;;;;76.65;28.27;;;;;;;-0.49;100.00;101066.69;5240153;28;20024;-64
2023/01/20 05:48:47;;;;;;;79.60;30.30;;;;;;;-0.49;100.00;101057.97;5238347;28;20249;-64
2023/01/20 05:51:19;;;;;;;74.53;30.13;;;;;;;-0.42;100.00;101068.25;5241031;28;20053;-64
2023/01/20 05:53:50;;;;;;;74.85;29.85;;;;;;;-0.38;100.00;101076.88;5241236;28;20078;-64
2023/01/20 05:56:21;;;;;;;73.75;28.35;;;;;;;-0.43;100.00;101071.75;5238188;28;20612;-64
2023/01/20 05:58:54;;;;;;;75.78;29.55;;;;;;;-0.37;100.00;101073.34;5242557;28;20044;-64
2023/01/20 06:01:26;;;;;;;76.40;29.35;;;;;;;-0.43;100.00;101078.78;5242115;28;20044;-64
2023/01/20 06:03:57;;;;;;;74.30;28.95;;;;;;;-0.43;100.00;101070.91;5242868;28;20036;-64
2023/01/20 06:06:29;;;;;;;71.30;28.23;;;;;;;-0.36;100.00;101075.09;5241588;28;20082;-64
2023/01/20 06:09:00;;;;;;;80.30;30.38;;;;;;;-0.41;100.00;101083.06;5243970;28;20779;-64
2023/01/20 06:11:31;;;;;;;75.45;29.55;;;;;;;-0.31;100.00;101083.66;5239219;28;20465;-64
2023/01/20 06:14:03;;;;;;;75.65;29.60;;;;;;;-0.26;100.00;101092.28;5241969;28;20036;-64
2023/01/20 06:16:34;;;;;;;70.32;27.83;;;;;;;-0.35;100.00;101094.28;5241101;28;20035;-64
2023/01/20 06:19:05;;;;;;;72.45;28.42;;;;;;;-0.35;100.00;101087.28;5246646;28;20088;-64
2023/01/20 06:21:37;;;;;;;75.03;28.42;;;;;;;-0.30;100.00;101097.66;5242948;28;20048;-64
2023/01/20 06:24:08;;;;;;;68.88;28.55;;;;;;;-0.22;100.00;101096.53;5243118;28;20025;-64
2023/01/20 06:26:39;;;;;;;72.65;29.48;;;;;;;-0.32;100.00;101102.09;5242816;28;20029;-64
2023/01/20 06:29:10;;;;;;;69.10;28.02;;;;;;;-0.33;100.00;101093.34;5244468;28;20033;-64
2023/01/20 06:31:43;;;;;;;72.38;27.40;;;;;;;-0.31;100.00;101106.41;5242156;28;20486;-64
2023/01/20 06:34:14;;;;;;;75.07;28.10;;;;;;;-0.29;100.00;101095.00;5239513;28;20108;-64
2023/01/20 06:36:46;;;;;;;80.35;29.25;;;;;;;-0.29;100.00;101101.97;5236353;28;20042;-64
2023/01/20 06:39:17;;;;;;;77.22;28.67;;;;;;;-0.29;100.00;101097.63;5242457;28;20098;-64
2023/01/20 06:41:48;;;;;;;69.50;28.00;;;;;;;-0.25;100.00;101095.75;5237050;28;20068;-64
2023/01/20 06:44:20;;;;;;;69.75;28.67;;;;;;;-0.26;100.00;101092.28;5243434;28;20025;-64
2023/01/20 06:46:51;;;;;;;79.88;30.08;;;;;;;-0.31;100.00;101091.53;5244891;28;20090;-64
2023/01/20 06:49:22;;;;;;;71.93;29.65;;;;;;;-0.28;100.00;101093.22;5242022;28;20040;-64
2023/01/20 06:51:54;;;;;;;76.13;29.23;;;;;;;-0.26;100.00;101089.66;5239206;28;20558;-64
2023/01/20 06:54:26;;;;;;;72.18;29.70;;;;;;;-0.33;100.00;101084.63;5244240;28;20028;-64
2023/01/20 06:56:57;;;;;;;71.63;28.50;;;;;;;-0.35;100.00;101089.03;5246284;28;20025;-64
2023/01/20 06:59:28;;;;;;;63.92;27.85;;;;;;;-0.35;100.00;101091.66;5252385;28;21065;-64
2023/01/20 07:01:59;;;;;;;68.93;28.77;;;;;;;-0.35;100.00;101091.66;5252746;28;20424;-64
2023/01/20 07:04:31;;;;;;;68.80;28.02;;;;;;;-0.34;100.00;101091.63;5253927;28;20041;-64
2023/01/20 07:07:02;;;;;;;74.88;28.48;;;;;;;-0.37;100.00;101083.84;5247743;28;20155;-64
2023/01/20 07:09:33;;;;;;;68.55;28.95;;;;;;;-0.38;100.00;101087.38;5254025;28;20119;-64
2023/01/20 07:12:05;;;;;;;72.57;26.92;;;;;;;-0.38;100.00;101095.25;5253970;28;20352;-64
2023/01/20 07:14:36;;;;;;;69.75;27.40;;;;;;;-0.39;100.00;101083.03;5252554;28;20040;-64
2023/01/20 07:17:10;;;;;;;74.00;27.27;;;;;;;-0.34;100.00;101096.88;5251110;28;20029;-66
2023/01/20 07:19:42;;;;;;;65.43;27.58;;;;;;;-0.41;100.00;101097.94;5254627;28;20037;-64
2023/01/20 07:22:13;;;;;;;69.55;26.83;;;;;;;-0.38;100.00;101095.25;5251945;28;20095;-64
2023/01/20 07:24:44;;;;;;;69.80;27.05;;;;;;;-0.42;100.00;101102.31;5254880;28;20029;-64
2023/01/20 07:27:16;;;;;;;68.43;27.73;;;;;;;-0.43;100.00;101099.75;5252080;28;20100;-64
2023/01/20 07:29:47;;;;;;;74.80;28.85;;;;;;;-0.45;100.00;101104.16;5241431;28;20025;-65
2023/01/20 07:32:19;;;;;;;68.13;26.85;;;;;;;-0.40;100.00;101108.38;5236146;28;20104;-64
2023/01/20 07:34:50;;;;;;;60.22;26.23;;;;;;;-0.42;100.00;101106.72;5243891;28;20029;-64
2023/01/20 07:37:21;;;;;;;61.78;26.70;;;;;;;-0.41;100.00;101111.03;5238743;28;20024;-64
2023/01/20 07:39:53;;;;;;;70.20;27.30;;;;;;;-0.44;100.00;101124.22;5236963;28;20116;-64
2023/01/20 07:42:24;;;;;;;61.70;26.30;;;;;;;-0.41;100.00;101134.63;5236905;28;20155;-65
2023/01/20 07:44:55;;;;;;;68.07;27.88;;;;;;;-0.31;100.00;101128.22;5237674;28;20075;-64
2023/01/20 07:47:26;;;;;;;67.85;26.73;;;;;;;-0.34;100.00;101128.34;5235208;28;20017;-64
2023/01/20 07:49:58;;;;;;;65.50;26.73;;;;;;;-0.34;100.00;101130.94;5237742;28;20056;-64
2023/01/20 07:52:29;;;;;;;63.03;26.42;;;;;;;-0.29;100.00;101131.69;5237776;28;20052;-64
2023/01/20 07:55:00;;;;;;;77.38;32.83;;;;;;;-0.32;100.00;101147.50;5242114;28;20025;-64
2023/01/20 07:57:32;;;;;;;71.88;30.08;;;;;;;-0.26;100.00;101142.09;5246588;28;20036;-64
2023/01/20 08:00:04;;;;;;;73.82;31.42;;;;;;;-0.30;100.00;101150.09;5253727;28;20025;-64
2023/01/20 08:02:39;;;;;;;77.97;33.95;;;;;;;-0.33;100.00;101145.75;5248716;28;20029;-64
2023/01/20 08:05:11;;;;;;;62.70;26.33;;;;;;;-0.37;100.00;101140.66;5251994;28;20025;-64
2023/01/20 08:07:42;;;;;;;64.00;27.58;;;;;;;-0.40;100.00;101145.09;5248210;28;20060;-64
2023/01/20 08:10:13;;;;;;;58.20;26.75;;;;;;;-0.38;100.00;101152.91;5251953;28;20363;-64
2023/01/20 08:12:45;;;;;;;61.70;26.83;;;;;;;-0.41;100.00;101150.34;5243829;28;20025;-64
2023/01/20 08:15:16;;;;;;;60.75;25.83;;;;;;;-0.37;100.00;101145.91;5237834;28;20408;-64
2023/01/20 08:17:52;;;;;;;64.82;27.52;;;;;;;-0.39;100.00;101148.56;5239868;28;21639;-63
2023/01/20 08:20:23;;;;;;;62.95;26.75;;;;;;;-0.40;100.00;101142.47;5242719;28;20060;-64
2023/01/20 08:22:55;;;;;;;82.93;38.15;;;;;;;-0.34;100.00;101145.84;5243015;28;20433;-64
2023/01/20 08:25:26;;;;;;;75.10;31.73;;;;;;;-0.41;100.00;101151.22;5243370;28;20032;-64
2023/01/20 08:27:57;;;;;;;74.93;28.08;;;;;;;-0.41;100.00;101152.97;5240015;28;20041;-64
2023/01/20 08:30:29;;;;;;;67.10;27.88;;;;;;;-0.36;100.00;101155.50;5244773;28;20037;-63
2023/01/20 08:33:00;;;;;;;62.30;26.70;;;;;;;-0.36;100.00;101153.72;5250146;28;20083;-63
2023/01/20 08:35:34;;;;;;;61.58;25.92;;;;;;;-0.37;100.00;101154.63;5246291;28;20060;-63
2023/01/20 08:38:06;;;;;;;60.92;24.50;;;;;;;-0.36;100.00;101151.13;5251333;28;20459;-63
2023/01/20 08:40:41;;;;;;;54.50;23.60;;;;;;;-0.28;100.00;101157.00;5248964;28;20023;-63
2023/01/20 08:43:14;;;;;;;58.13;24.80;;;;;;;-0.31;100.00;101157.06;5251199;28;20033;-63
2023/01/20 08:45:46;;;;;;;59.30;25.45;;;;;;;-0.33;100.00;101156.25;5250435;28;20029;-63
2023/01/20 08:48:18;;;;;;;57.75;24.05;;;;;;;-0.23;100.00;101160.38;5250049;28;20056;-63
2023/01/20 08:50:50;;;;;;;52.00;22.65;;;;;;;-0.30;100.00;101160.56;5251186;28;20036;-63
2023/01/20 08:53:21;;;;;;;53.25;24.02;;;;;;;-0.30;100.00;101157.94;5248336;28;20083;-63
2023/01/20 08:55:54;;;;;;;54.75;23.92;;;;;;;-0.26;100.00;101163.06;5249743;28;20033;-63
2023/01/20 08:58:27;;;;;;;56.25;23.73;;;;;;;-0.22;100.00;101163.84;5248899;28;20053;-63
2023/01/20 09:00:58;;;;;;;53.92;23.85;;;;;;;-0.31;100.00;101161.47;5246019;28;20083;-63
2023/01/20 09:03:30;;;;;;;52.28;23.40;;;;;;;-0.32;100.00;101167.63;5243952;28;20041;-63
2023/01/20 09:06:03;;;;;;;55.97;23.85;;;;;;;-0.36;100.00;101171.22;5245388;28;20047;-63
2023/01/20 09:08:35;;;;;;;49.78;22.27;;;;;;;-0.32;100.00;101168.47;5244562;28;20474;-62
2023/01/20 09:11:10;;;;;;;56.78;23.88;;;;;;;-0.32;100.00;101176.34;5251369;28;20760;-62
2023/01/20 09:13:41;;;;;;;54.67;22.77;;;;;;;-0.36;100.00;101174.69;5251482;28;20056;-62
2023/01/20 09:16:14;;;;;;;59.10;23.83;;;;;;;-0.33;100.00;101173.75;5251442;28;20017;-62
2023/01/20 09:18:45;;;;;;;58.28;23.73;;;;;;;-0.32;100.00;101170.25;5252022;28;20037;-62
2023/01/20 09:21:17;;;;;;;54.35;23.70;;;;;;;-0.33;100.00;101166.75;5255080;28;20087;-63
2023/01/20 09:23:48;;;;;;;56.47;24.30;;;;;;;-0.36;100.00;101174.69;5254641;28;20035;-63
2023/01/20 09:26:19;;;;;;;60.28;24.55;;;;;;;-0.26;100.00;101164.84;5251738;28;20098;-63
2023/01/20 09:28:50;;;;;;;56.22;23.50;;;;;;;-0.27;100.00;101176.22;5256371;28;20149;-63
2023/01/20 09:31:22;;;;;;;53.38;23.75;;;;;;;-0.20;100.00;101168.13;5251550;28;20028;-63
2023/01/20 09:33:54;;;;;;;56.95;25.08;;;;;;;-0.26;100.00;101173.56;5247948;28;21442;-65
2023/01/20 09:36:28;;;;;;;50.20;23.00;;;;;;;-0.26;100.00;101181.41;5252342;28;21009;-64
2023/01/20 09:45:21;;;;;;;54.83;23.63;;;;;;;-0.18;100.00;101189.09;5225344;28;20470;-64
2023/01/20 09:48:14;;;;;;;49.60;22.67;;;;;;;-0.18;100.00;101196.09;5247093;28;20086;-64
2023/01/20 09:54:05;;;;;;;49.88;22.33;;;;;;;-0.24;100.00;101191.88;5254184;28;20049;-64
2023/01/20 09:56:42;;;;;;;45.03;19.88;;;;;;;-0.22;100.00;101196.16;5249989;28;20051;-63
2023/01/20 09:59:26;;;;;;;43.83;20.98;;;;;;;-0.25;100.00;101191.03;5249733;28;21956;-63
2023/01/20 10:02:04;;;;;;;44.85;20.55;;;;;;;-0.20;100.00;101189.13;5249025;28;20033;-63
2023/01/20 10:04:47;;;;;;;43.25;20.27;;;;;;;-0.29;100.00;101181.50;5256108;28;20474;-64
2023/01/20 10:07:18;;;;;;;44.00;20.83;;;;;;;-0.24;100.00;101186.63;5254470;28;20128;-63
2023/01/20 10:09:57;;;;;;;42.10;18.45;;;;;;;-0.32;100.00;101178.09;5253132;28;20033;-63
2023/01/20 10:12:32;;;;;;;40.13;19.05;;;;;;;-0.30;100.00;101173.69;5251887;28;20029;-64
2023/01/20 10:15:08;;;;;;;42.95;19.00;;;;;;;-0.34;100.00;101174.66;5254535;28;20081;-63
2023/01/20 10:18:04;;;;;;;41.40;18.42;;;;;;;-0.31;100.00;101178.03;5254725;28;20033;-64
2023/01/20 10:20:49;;;;;;;37.65;17.70;;;;;;;-0.33;100.00;101179.00;5254448;28;20575;-64
2023/01/20 10:23:33;;;;;;;34.13;16.05;;;;;;;-0.38;100.00;101191.34;5252428;28;20491;-64
2023/01/20 10:26:17;;;;;;;33.55;16.20;;;;;;;-0.35;100.00;101181.66;5255445;28;20052;-64
2023/01/20 10:29:00;;;;;;;32.67;16.08;;;;;;;-0.31;100.00;101182.44;5253369;28;20511;-64
2023/01/20 10:31:36;;;;;;;35.42;16.20;;;;;;;-0.36;100.00;101177.31;5251686;28;20452;-65
2023/01/20 10:34:13;;;;;;;29.55;14.73;;;;;;;-0.30;100.00;101178.94;5255100;28;20037;-64
2023/01/20 10:36:49;;;;;;;29.08;15.20;;;;;;;-0.30;100.00;101171.06;5251917;28;20032;-65
2023/01/20 10:39:40;;;;;;;31.10;16.10;;;;;;;-0.24;100.00;101176.13;5254068;28;20066;-64
2023/01/20 10:42:15;;;;;;;27.55;14.73;;;;;;;-0.24;100.00;101182.22;5249996;28;20759;-64
2023/01/20 10:44:49;;;;;;;27.73;14.55;;;;;;;-0.18;100.00;101167.25;5257545;28;20108;-64
2023/01/20 10:47:29;;;;;;;27.98;14.45;;;;;;;-0.23;100.00;101178.72;5248257;28;20037;-64
2023/01/20 10:50:06;;;;;;;30.33;15.65;;;;;;;-0.18;100.00;101178.59;5254145;28;20017;-64
2023/01/20 10:52:40;;;;;;;30.50;15.32;;;;;;;-0.23;100.00;101170.88;5252893;28;20131;-64
2023/01/20 10:55:46;;;;;;;30.50;15.65;;;;;;;-0.18;100.00;101175.97;5253400;28;20033;-64
2023/01/20 10:58:25;;;;;;;;;;;;;;;-0.16;100.00;101173.31;5252361;28;20029;-64
2023/01/20 11:01:01;;;;;;;27.80;15.23;;;;;;;-0.15;100.00;101177.63;5254344;28;19974;-64
2023/01/20 11:03:39;;;;;;;29.48;15.07;;;;;;;-0.20;100.00;101175.16;5255213;28;20050;-64
2023/01/20 11:06:25;;;;;;;29.20;15.35;;;;;;;-0.16;100.00;101171.53;5253196;28;20434;-64
2023/01/20 11:09:10;;;;;;;27.27;14.68;;;;;;;-0.13;100.00;101183.72;5251419;28;20064;-65
2023/01/20 11:11:42;;;;;;;27.58;14.98;;;;;;;-0.07;100.00;101175.69;5252617;28;20302;-65
2023/01/20 11:14:13;;;;;;;29.00;14.85;;;;;;;-0.16;100.00;101178.56;5254891;28;20029;-65
2023/01/20 11:16:48;;;;;;;32.42;15.15;;;;;;;-0.11;100.00;101179.31;5255098;28;20027;-65
2023/01/20 11:19:19;;;;;;;29.02;15.85;;;;;;;-0.13;100.00;101175.88;5253392;28;20036;-64
2023/01/20 11:21:51;;;;;;;32.78;18.02;;;;;;;-0.16;100.00;101179.41;5253567;28;20053;-65
2023/01/20 11:24:34;;;;;;;31.65;17.30;;;;;;;-0.15;100.00;101182.88;5250880;28;20064;-64
2023/01/20 11:27:12;;;;;;;30.95;17.27;;;;;;;-0.09;100.00;101178.34;5251764;28;20029;-64
2023/01/20 11:29:50;;;;;;;36.15;20.13;;;;;;;-0.01;100.00;101186.00;5254369;28;20112;-64
2023/01/20 11:32:30;;;;;;;34.72;19.92;;;;;;;-0.05;100.00;101184.38;5251361;28;20021;-63
2023/01/20 11:35:23;;;;;;;31.45;17.38;;;;;;;-0.05;100.00;101184.38;5252363;28;20033;-63
2023/01/20 11:37:54;;;;;;;31.60;16.35;;;;;;;-0.02;100.00;101189.53;5247881;28;20040;-63
2023/01/20 11:40:27;;;;;;;30.65;16.55;;;;;;;0.05;100.00;101185.84;5247345;28;20056;-63
2023/01/20 11:42:58;;;;;;;32.58;17.17;;;;;;;0.05;100.00;101190.22;5247841;28;20088;-64